sensor_id;sensor_type;location;lat;lon;timestamp;P1;durP1;ratioP1;P2;durP2;ratioP2
58242;SDS011;50118;53.232;8.252;2022-08-21T00:00:52;5.15;;;3.50;;
58242;SDS011;50118;53.232;8.252;2022-08-21T00:03:18;5.38;;;3.47;;
58242;SDS011;50118;53.232;8.252;2022-08-21T00:05:46;6.05;;;3.40;;
58242;SDS011;50118;53.232;8.252;2022-08-21T00:08:16;6.18;;;3.72;;
58242;SDS011;50118;53.232;8.252;2022-08-21T00:10:43;6.43;;;3.60;;
58242;SDS011;50118;53.232;8.252;2022-08-21T00:13:17;6.28;;;3.28;;
58242;SDS011;50118;53.232;8.252;2022-08-21T00:15:45;6.80;;;3.70;;
58242;SDS011;50118;53.232;8.252;2022-08-21T00:18:15;6.95;;;3.65;;
58242;SDS011;50118;53.232;8.252;2022-08-21T00:20:42;5.57;;;3.35;;
58242;SDS011;50118;53.232;8.252;2022-08-21T00:23:09;7.32;;;3.67;;
58242;SDS011;50118;53.232;8.252;2022-08-21T00:25:35;6.03;;;3.40;;
58242;SDS011;50118;53.232;8.252;2022-08-21T00:28:02;6.15;;;3.50;;
58242;SDS011;50118;53.232;8.252;2022-08-21T00:30:29;6.70;;;3.40;;
58242;SDS011;50118;53.232;8.252;2022-08-21T00:39:13;5.40;;;3.63;;
58242;SDS011;50118;53.232;8.252;2022-08-21T00:41:45;7.78;;;3.50;;
58242;SDS011;50118;53.232;8.252;2022-08-21T00:44:12;4.78;;;3.33;;
58242;SDS011;50118;53.232;8.252;2022-08-21T00:49:51;8.00;;;3.40;;
58242;SDS011;50118;53.232;8.252;2022-08-21T00:52:32;6.65;;;3.60;;
58242;SDS011;50118;53.232;8.252;2022-08-21T00:55:01;5.85;;;3.53;;
58242;SDS011;50118;53.232;8.252;2022-08-21T00:57:40;4.32;;;3.13;;
58242;SDS011;50118;53.232;8.252;2022-08-21T01:00:12;8.77;;;3.88;;
58242;SDS011;50118;53.232;8.252;2022-08-21T01:02:41;9.55;;;3.80;;
58242;SDS011;50118;53.232;8.252;2022-08-21T01:05:08;6.40;;;4.53;;
58242;SDS011;50118;53.232;8.252;2022-08-21T01:07:34;6.32;;;3.95;;
58242;SDS011;50118;53.232;8.252;2022-08-21T01:16:28;4.80;;;3.17;;
58242;SDS011;50118;53.232;8.252;2022-08-21T01:19:16;5.63;;;3.70;;
58242;SDS011;50118;53.232;8.252;2022-08-21T01:24:11;7.22;;;3.90;;
58242;SDS011;50118;53.232;8.252;2022-08-21T01:26:38;6.70;;;4.32;;
58242;SDS011;50118;53.232;8.252;2022-08-21T01:29:05;6.25;;;3.72;;
58242;SDS011;50118;53.232;8.252;2022-08-21T01:32:31;5.47;;;3.50;;
58242;SDS011;50118;53.232;8.252;2022-08-21T01:41:32;5.38;;;3.30;;
58242;SDS011;50118;53.232;8.252;2022-08-21T01:44:01;9.30;;;3.85;;
58242;SDS011;50118;53.232;8.252;2022-08-21T01:46:41;5.57;;;3.72;;
58242;SDS011;50118;53.232;8.252;2022-08-21T01:49:06;6.00;;;3.83;;
58242;SDS011;50118;53.232;8.252;2022-08-21T01:51:36;8.43;;;4.25;;
58242;SDS011;50118;53.232;8.252;2022-08-21T01:54:01;5.30;;;3.50;;
58242;SDS011;50118;53.232;8.252;2022-08-21T01:56:27;8.32;;;4.18;;
58242;SDS011;50118;53.232;8.252;2022-08-21T01:58:53;7.15;;;4.00;;
58242;SDS011;50118;53.232;8.252;2022-08-21T02:01:18;7.68;;;3.53;;
58242;SDS011;50118;53.232;8.252;2022-08-21T02:03:44;7.28;;;3.67;;
58242;SDS011;50118;53.232;8.252;2022-08-21T02:06:52;6.45;;;3.83;;
58242;SDS011;50118;53.232;8.252;2022-08-21T02:09:18;5.60;;;3.50;;
58242;SDS011;50118;53.232;8.252;2022-08-21T02:11:44;4.75;;;3.65;;
58242;SDS011;50118;53.232;8.252;2022-08-21T02:14:31;6.65;;;3.55;;
58242;SDS011;50118;53.232;8.252;2022-08-21T02:16:55;5.85;;;4.00;;
58242;SDS011;50118;53.232;8.252;2022-08-21T02:19:23;7.50;;;3.63;;
58242;SDS011;50118;53.232;8.252;2022-08-21T02:21:49;7.70;;;4.00;;
58242;SDS011;50118;53.232;8.252;2022-08-21T02:24:35;7.53;;;4.00;;
58242;SDS011;50118;53.232;8.252;2022-08-21T02:27:01;7.00;;;4.13;;
58242;SDS011;50118;53.232;8.252;2022-08-21T02:29:27;5.10;;;4.00;;
58242;SDS011;50118;53.232;8.252;2022-08-21T02:35:12;5.97;;;4.00;;
58242;SDS011;50118;53.232;8.252;2022-08-21T02:37:52;6.03;;;3.65;;
58242;SDS011;50118;53.232;8.252;2022-08-21T02:43:33;6.22;;;3.95;;
58242;SDS011;50118;53.232;8.252;2022-08-21T02:45:59;6.85;;;3.78;;
58242;SDS011;50118;53.232;8.252;2022-08-21T02:48:27;6.78;;;3.90;;
58242;SDS011;50118;53.232;8.252;2022-08-21T02:51:15;8.52;;;4.35;;
58242;SDS011;50118;53.232;8.252;2022-08-21T02:53:48;8.00;;;4.20;;
58242;SDS011;50118;53.232;8.252;2022-08-21T02:56:15;6.05;;;3.72;;
58242;SDS011;50118;53.232;8.252;2022-08-21T02:58:44;6.68;;;3.92;;
58242;SDS011;50118;53.232;8.252;2022-08-21T03:01:11;6.13;;;3.70;;
58242;SDS011;50118;53.232;8.252;2022-08-21T03:03:39;6.82;;;4.30;;
58242;SDS011;50118;53.232;8.252;2022-08-21T03:06:07;7.90;;;4.10;;
58242;SDS011;50118;53.232;8.252;2022-08-21T03:08:37;6.07;;;3.90;;
58242;SDS011;50118;53.232;8.252;2022-08-21T03:11:05;6.90;;;3.90;;
58242;SDS011;50118;53.232;8.252;2022-08-21T03:13:31;7.10;;;4.10;;
58242;SDS011;50118;53.232;8.252;2022-08-21T03:15:57;6.93;;;3.97;;
58242;SDS011;50118;53.232;8.252;2022-08-21T03:18:24;7.10;;;4.30;;
58242;SDS011;50118;53.232;8.252;2022-08-21T03:20:49;7.18;;;4.40;;
58242;SDS011;50118;53.232;8.252;2022-08-21T03:23:15;6.90;;;4.70;;
58242;SDS011;50118;53.232;8.252;2022-08-21T03:25:43;5.90;;;4.38;;
58242;SDS011;50118;53.232;8.252;2022-08-21T03:28:10;6.03;;;4.13;;
58242;SDS011;50118;53.232;8.252;2022-08-21T03:30:38;6.65;;;4.63;;
58242;SDS011;50118;53.232;8.252;2022-08-21T03:33:04;8.80;;;4.55;;
58242;SDS011;50118;53.232;8.252;2022-08-21T03:35:30;7.28;;;4.57;;
58242;SDS011;50118;53.232;8.252;2022-08-21T03:37:55;6.82;;;4.20;;
58242;SDS011;50118;53.232;8.252;2022-08-21T03:40:24;7.20;;;4.15;;
58242;SDS011;50118;53.232;8.252;2022-08-21T03:42:50;7.20;;;4.43;;
58242;SDS011;50118;53.232;8.252;2022-08-21T03:45:19;7.22;;;4.35;;
58242;SDS011;50118;53.232;8.252;2022-08-21T03:47:52;6.45;;;4.50;;
58242;SDS011;50118;53.232;8.252;2022-08-21T03:50:23;8.50;;;4.40;;
58242;SDS011;50118;53.232;8.252;2022-08-21T03:52:53;8.27;;;5.00;;
58242;SDS011;50118;53.232;8.252;2022-08-21T03:55:20;9.20;;;4.60;;
58242;SDS011;50118;53.232;8.252;2022-08-21T03:57:45;7.18;;;4.75;;
58242;SDS011;50118;53.232;8.252;2022-08-21T04:00:12;8.60;;;5.00;;
58242;SDS011;50118;53.232;8.252;2022-08-21T04:02:49;9.63;;;4.85;;
58242;SDS011;50118;53.232;8.252;2022-08-21T04:05:16;8.18;;;4.55;;
58242;SDS011;50118;53.232;8.252;2022-08-21T04:07:58;6.13;;;4.22;;
58242;SDS011;50118;53.232;8.252;2022-08-21T04:10:26;7.07;;;4.60;;
58242;SDS011;50118;53.232;8.252;2022-08-21T04:12:53;5.65;;;4.32;;
58242;SDS011;50118;53.232;8.252;2022-08-21T04:15:20;7.05;;;4.57;;
58242;SDS011;50118;53.232;8.252;2022-08-21T04:17:46;5.88;;;4.60;;
58242;SDS011;50118;53.232;8.252;2022-08-21T04:20:13;6.38;;;4.53;;
58242;SDS011;50118;53.232;8.252;2022-08-21T04:22:39;7.97;;;4.90;;
58242;SDS011;50118;53.232;8.252;2022-08-21T04:25:05;6.72;;;4.75;;
58242;SDS011;50118;53.232;8.252;2022-08-21T04:27:30;8.30;;;4.85;;
58242;SDS011;50118;53.232;8.252;2022-08-21T04:29:56;7.95;;;5.03;;
58242;SDS011;50118;53.232;8.252;2022-08-21T04:32:22;8.88;;;5.07;;
58242;SDS011;50118;53.232;8.252;2022-08-21T04:34:48;7.10;;;4.40;;
58242;SDS011;50118;53.232;8.252;2022-08-21T04:37:14;7.50;;;4.57;;
58242;SDS011;50118;53.232;8.252;2022-08-21T04:39:40;7.57;;;5.03;;
58242;SDS011;50118;53.232;8.252;2022-08-21T04:42:09;7.13;;;4.60;;
58242;SDS011;50118;53.232;8.252;2022-08-21T04:44:35;7.30;;;5.00;;
58242;SDS011;50118;53.232;8.252;2022-08-21T04:47:01;7.80;;;4.65;;
58242;SDS011;50118;53.232;8.252;2022-08-21T04:49:26;6.53;;;4.78;;
58242;SDS011;50118;53.232;8.252;2022-08-21T04:51:52;8.20;;;5.07;;
58242;SDS011;50118;53.232;8.252;2022-08-21T04:54:19;7.35;;;5.05;;
58242;SDS011;50118;53.232;8.252;2022-08-21T04:56:54;8.82;;;5.20;;
58242;SDS011;50118;53.232;8.252;2022-08-21T04:59:28;7.25;;;5.43;;
58242;SDS011;50118;53.232;8.252;2022-08-21T05:02:51;8.68;;;5.68;;
58242;SDS011;50118;53.232;8.252;2022-08-21T05:05:21;8.77;;;5.18;;
58242;SDS011;50118;53.232;8.252;2022-08-21T05:07:53;7.20;;;5.55;;
58242;SDS011;50118;53.232;8.252;2022-08-21T05:10:19;9.05;;;5.32;;
58242;SDS011;50118;53.232;8.252;2022-08-21T05:12:45;6.82;;;5.50;;
58242;SDS011;50118;53.232;8.252;2022-08-21T05:15:11;8.30;;;5.80;;
58242;SDS011;50118;53.232;8.252;2022-08-21T05:17:42;9.30;;;5.30;;
58242;SDS011;50118;53.232;8.252;2022-08-21T05:20:09;8.65;;;5.75;;
58242;SDS011;50118;53.232;8.252;2022-08-21T05:25:12;8.48;;;5.72;;
58242;SDS011;50118;53.232;8.252;2022-08-21T05:27:38;8.88;;;4.93;;
58242;SDS011;50118;53.232;8.252;2022-08-21T05:30:03;9.00;;;5.70;;
58242;SDS011;50118;53.232;8.252;2022-08-21T05:32:31;7.55;;;5.18;;
58242;SDS011;50118;53.232;8.252;2022-08-21T05:35:00;6.38;;;3.95;;
58242;SDS011;50118;53.232;8.252;2022-08-21T05:37:25;6.18;;;4.00;;
58242;SDS011;50118;53.232;8.252;2022-08-21T05:39:51;6.75;;;4.18;;
58242;SDS011;50118;53.232;8.252;2022-08-21T05:42:16;6.55;;;4.00;;
58242;SDS011;50118;53.232;8.252;2022-08-21T05:44:42;6.28;;;4.13;;
58242;SDS011;50118;53.232;8.252;2022-08-21T05:47:09;7.93;;;4.40;;
58242;SDS011;50118;53.232;8.252;2022-08-21T05:49:36;6.68;;;4.00;;
58242;SDS011;50118;53.232;8.252;2022-08-21T05:52:02;10.05;;;5.13;;
58242;SDS011;50118;53.232;8.252;2022-08-21T05:54:28;8.27;;;4.40;;
58242;SDS011;50118;53.232;8.252;2022-08-21T05:56:54;8.27;;;4.60;;
58242;SDS011;50118;53.232;8.252;2022-08-21T05:59:20;8.52;;;4.30;;
58242;SDS011;50118;53.232;8.252;2022-08-21T06:01:45;7.90;;;4.90;;
58242;SDS011;50118;53.232;8.252;2022-08-21T06:04:11;9.32;;;5.05;;
58242;SDS011;50118;53.232;8.252;2022-08-21T06:06:37;9.50;;;5.57;;
58242;SDS011;50118;53.232;8.252;2022-08-21T06:09:03;8.80;;;5.18;;
58242;SDS011;50118;53.232;8.252;2022-08-21T06:11:30;9.65;;;5.65;;
58242;SDS011;50118;53.232;8.252;2022-08-21T06:14:08;11.75;;;5.78;;
58242;SDS011;50118;53.232;8.252;2022-08-21T06:16:33;9.07;;;5.72;;
58242;SDS011;50118;53.232;8.252;2022-08-21T06:21:53;10.15;;;5.70;;
58242;SDS011;50118;53.232;8.252;2022-08-21T06:24:46;9.98;;;6.10;;
58242;SDS011;50118;53.232;8.252;2022-08-21T06:27:14;9.65;;;5.88;;
58242;SDS011;50118;53.232;8.252;2022-08-21T06:29:59;9.25;;;6.10;;
58242;SDS011;50118;53.232;8.252;2022-08-21T06:35:41;9.65;;;6.10;;
58242;SDS011;50118;53.232;8.252;2022-08-21T06:38:07;11.23;;;6.40;;
58242;SDS011;50118;53.232;8.252;2022-08-21T06:40:33;11.55;;;6.10;;
58242;SDS011;50118;53.232;8.252;2022-08-21T06:43:09;10.45;;;5.38;;
58242;SDS011;50118;53.232;8.252;2022-08-21T06:45:38;10.48;;;6.18;;
58242;SDS011;50118;53.232;8.252;2022-08-21T06:48:04;14.07;;;5.88;;
58242;SDS011;50118;53.232;8.252;2022-08-21T06:50:33;7.25;;;5.03;;
58242;SDS011;50118;53.232;8.252;2022-08-21T06:53:25;9.50;;;5.20;;
58242;SDS011;50118;53.232;8.252;2022-08-21T06:55:50;12.48;;;5.30;;
58242;SDS011;50118;53.232;8.252;2022-08-21T06:58:16;9.68;;;5.00;;
58242;SDS011;50118;53.232;8.252;2022-08-21T07:00:55;8.68;;;4.50;;
58242;SDS011;50118;53.232;8.252;2022-08-21T07:03:48;8.93;;;4.30;;
58242;SDS011;50118;53.232;8.252;2022-08-21T07:06:15;9.07;;;4.40;;
58242;SDS011;50118;53.232;8.252;2022-08-21T07:08:40;8.43;;;4.20;;
58242;SDS011;50118;53.232;8.252;2022-08-21T07:11:07;9.38;;;3.80;;
58242;SDS011;50118;53.232;8.252;2022-08-21T07:13:40;8.18;;;3.28;;
58242;SDS011;50118;53.232;8.252;2022-08-21T07:16:06;8.55;;;3.42;;
58242;SDS011;50118;53.232;8.252;2022-08-21T07:18:31;8.82;;;3.90;;
58242;SDS011;50118;53.232;8.252;2022-08-21T07:20:57;7.28;;;3.45;;
58242;SDS011;50118;53.232;8.252;2022-08-21T07:23:24;9.10;;;3.72;;
58242;SDS011;50118;53.232;8.252;2022-08-21T07:28:31;8.52;;;3.42;;
58242;SDS011;50118;53.232;8.252;2022-08-21T07:30:57;7.10;;;3.10;;
58242;SDS011;50118;53.232;8.252;2022-08-21T07:33:25;10.30;;;3.13;;
58242;SDS011;50118;53.232;8.252;2022-08-21T07:35:51;6.75;;;3.40;;
58242;SDS011;50118;53.232;8.252;2022-08-21T07:38:17;9.10;;;3.28;;
58242;SDS011;50118;53.232;8.252;2022-08-21T07:40:44;7.72;;;3.00;;
58242;SDS011;50118;53.232;8.252;2022-08-21T07:43:10;6.30;;;3.00;;
58242;SDS011;50118;53.232;8.252;2022-08-21T07:45:36;5.72;;;2.90;;
58242;SDS011;50118;53.232;8.252;2022-08-21T07:48:02;7.10;;;3.22;;
58242;SDS011;50118;53.232;8.252;2022-08-21T07:50:28;7.88;;;2.97;;
58242;SDS011;50118;53.232;8.252;2022-08-21T07:52:53;9.20;;;3.20;;
58242;SDS011;50118;53.232;8.252;2022-08-21T07:55:19;8.88;;;3.38;;
58242;SDS011;50118;53.232;8.252;2022-08-21T07:57:46;6.65;;;3.00;;
58242;SDS011;50118;53.232;8.252;2022-08-21T08:00:14;8.40;;;3.42;;
58242;SDS011;50118;53.232;8.252;2022-08-21T08:02:43;7.93;;;3.42;;
58242;SDS011;50118;53.232;8.252;2022-08-21T08:05:11;6.35;;;3.00;;
58242;SDS011;50118;53.232;8.252;2022-08-21T08:07:38;8.27;;;3.42;;
58242;SDS011;50118;53.232;8.252;2022-08-21T08:10:04;7.97;;;3.50;;
58242;SDS011;50118;53.232;8.252;2022-08-21T08:12:32;8.45;;;3.20;;
58242;SDS011;50118;53.232;8.252;2022-08-21T08:15:02;6.65;;;2.97;;
58242;SDS011;50118;53.232;8.252;2022-08-21T08:17:31;7.05;;;2.90;;
58242;SDS011;50118;53.232;8.252;2022-08-21T08:19:57;6.47;;;2.78;;
58242;SDS011;50118;53.232;8.252;2022-08-21T08:22:23;6.15;;;2.60;;
58242;SDS011;50118;53.232;8.252;2022-08-21T08:24:51;8.48;;;2.50;;
58242;SDS011;50118;53.232;8.252;2022-08-21T08:27:17;7.80;;;2.78;;
58242;SDS011;50118;53.232;8.252;2022-08-21T08:29:43;7.88;;;2.72;;
58242;SDS011;50118;53.232;8.252;2022-08-21T08:32:09;9.75;;;2.42;;
58242;SDS011;50118;53.232;8.252;2022-08-21T08:34:35;5.43;;;2.33;;
58242;SDS011;50118;53.232;8.252;2022-08-21T08:37:03;9.10;;;2.63;;
58242;SDS011;50118;53.232;8.252;2022-08-21T08:39:29;6.03;;;2.60;;
58242;SDS011;50118;53.232;8.252;2022-08-21T08:42:41;8.82;;;2.53;;
58242;SDS011;50118;53.232;8.252;2022-08-21T08:45:02;7.30;;;2.40;;
58242;SDS011;50118;53.232;8.252;2022-08-21T08:48:14;7.40;;;2.55;;
58242;SDS011;50118;53.232;8.252;2022-08-21T08:55:48;10.07;;;3.75;;
58242;SDS011;50118;53.232;8.252;2022-08-21T08:58:18;8.45;;;3.10;;
58242;SDS011;50118;53.232;8.252;2022-08-21T09:00:51;8.85;;;3.55;;
58242;SDS011;50118;53.232;8.252;2022-08-21T09:03:18;8.38;;;3.50;;
58242;SDS011;50118;53.232;8.252;2022-08-21T09:05:45;9.23;;;4.05;;
58242;SDS011;50118;53.232;8.252;2022-08-21T09:08:25;8.35;;;3.10;;
58242;SDS011;50118;53.232;8.252;2022-08-21T09:11:21;9.32;;;3.28;;
58242;SDS011;50118;53.232;8.252;2022-08-21T09:16:47;9.75;;;2.90;;
58242;SDS011;50118;53.232;8.252;2022-08-21T09:19:26;8.20;;;2.83;;
58242;SDS011;50118;53.232;8.252;2022-08-21T09:24:33;9.20;;;2.90;;
58242;SDS011;50118;53.232;8.252;2022-08-21T09:27:08;6.88;;;2.67;;
58242;SDS011;50118;53.232;8.252;2022-08-21T09:29:35;6.15;;;2.55;;
58242;SDS011;50118;53.232;8.252;2022-08-21T09:32:04;8.00;;;2.58;;
58242;SDS011;50118;53.232;8.252;2022-08-21T09:34:40;8.40;;;2.58;;
58242;SDS011;50118;53.232;8.252;2022-08-21T09:37:15;7.22;;;2.55;;
58242;SDS011;50118;53.232;8.252;2022-08-21T09:39:42;9.25;;;2.55;;
58242;SDS011;50118;53.232;8.252;2022-08-21T09:42:09;7.47;;;2.25;;
58242;SDS011;50118;53.232;8.252;2022-08-21T09:44:36;6.05;;;2.30;;
58242;SDS011;50118;53.232;8.252;2022-08-21T09:47:05;8.00;;;2.53;;
58242;SDS011;50118;53.232;8.252;2022-08-21T09:49:35;6.22;;;2.20;;
58242;SDS011;50118;53.232;8.252;2022-08-21T09:52:17;7.35;;;2.53;;
58242;SDS011;50118;53.232;8.252;2022-08-21T09:54:46;9.23;;;2.67;;
58242;SDS011;50118;53.232;8.252;2022-08-21T09:57:28;5.43;;;1.90;;
58242;SDS011;50118;53.232;8.252;2022-08-21T10:00:49;6.25;;;2.08;;
58242;SDS011;50118;53.232;8.252;2022-08-21T10:05:49;6.90;;;1.80;;
58242;SDS011;50118;53.232;8.252;2022-08-21T10:08:20;5.38;;;2.00;;
58242;SDS011;50118;53.232;8.252;2022-08-21T10:10:50;5.95;;;2.15;;
58242;SDS011;50118;53.232;8.252;2022-08-21T10:16:15;7.78;;;2.13;;
58242;SDS011;50118;53.232;8.252;2022-08-21T10:22:11;4.55;;;1.60;;
58242;SDS011;50118;53.232;8.252;2022-08-21T10:24:58;6.20;;;2.00;;
58242;SDS011;50118;53.232;8.252;2022-08-21T10:38:58;4.28;;;1.98;;
58242;SDS011;50118;53.232;8.252;2022-08-21T10:44:26;6.78;;;2.05;;
58242;SDS011;50118;53.232;8.252;2022-08-21T10:47:33;5.15;;;1.90;;
58242;SDS011;50118;53.232;8.252;2022-08-21T10:55:22;5.53;;;2.10;;
58242;SDS011;50118;53.232;8.252;2022-08-21T11:00:26;5.30;;;1.77;;
58242;SDS011;50118;53.232;8.252;2022-08-21T11:03:02;6.40;;;2.10;;
58242;SDS011;50118;53.232;8.252;2022-08-21T11:05:33;7.07;;;2.10;;
58242;SDS011;50118;53.232;8.252;2022-08-21T11:08:12;6.28;;;1.85;;
58242;SDS011;50118;53.232;8.252;2022-08-21T11:10:46;5.95;;;2.10;;
58242;SDS011;50118;53.232;8.252;2022-08-21T11:16:14;3.60;;;1.60;;
58242;SDS011;50118;53.232;8.252;2022-08-21T11:18:51;3.70;;;1.60;;
58242;SDS011;50118;53.232;8.252;2022-08-21T11:27:05;6.50;;;1.63;;
58242;SDS011;50118;53.232;8.252;2022-08-21T11:29:40;5.38;;;1.60;;
58242;SDS011;50118;53.232;8.252;2022-08-21T11:40:36;6.13;;;1.90;;
58242;SDS011;50118;53.232;8.252;2022-08-21T11:51:53;3.78;;;1.60;;
58242;SDS011;50118;53.232;8.252;2022-08-21T11:57:22;4.95;;;1.80;;
58242;SDS011;50118;53.232;8.252;2022-08-21T11:59:58;3.22;;;1.58;;
58242;SDS011;50118;53.232;8.252;2022-08-21T12:02:39;3.92;;;1.60;;
58242;SDS011;50118;53.232;8.252;2022-08-21T12:05:29;4.35;;;1.52;;
58242;SDS011;50118;53.232;8.252;2022-08-21T12:08:03;3.20;;;1.50;;
58242;SDS011;50118;53.232;8.252;2022-08-21T12:10:38;3.25;;;1.60;;
58242;SDS011;50118;53.232;8.252;2022-08-21T12:13:08;4.25;;;1.60;;
58242;SDS011;50118;53.232;8.252;2022-08-21T12:18:05;3.88;;;1.65;;
58242;SDS011;50118;53.232;8.252;2022-08-21T12:20:59;4.00;;;1.70;;
58242;SDS011;50118;53.232;8.252;2022-08-21T12:23:43;4.28;;;1.70;;
58242;SDS011;50118;53.232;8.252;2022-08-21T12:26:30;4.53;;;1.60;;
58242;SDS011;50118;53.232;8.252;2022-08-21T12:29:04;5.72;;;1.60;;
58242;SDS011;50118;53.232;8.252;2022-08-21T12:31:33;3.10;;;1.60;;
58242;SDS011;50118;53.232;8.252;2022-08-21T12:33:59;3.25;;;1.60;;
58242;SDS011;50118;53.232;8.252;2022-08-21T12:36:33;3.63;;;1.65;;
58242;SDS011;50118;53.232;8.252;2022-08-21T12:39:11;3.53;;;1.52;;
58242;SDS011;50118;53.232;8.252;2022-08-21T12:41:47;3.75;;;1.50;;
58242;SDS011;50118;53.232;8.252;2022-08-21T12:44:17;3.20;;;1.50;;
58242;SDS011;50118;53.232;8.252;2022-08-21T12:46:59;3.65;;;1.70;;
58242;SDS011;50118;53.232;8.252;2022-08-21T12:54:42;3.80;;;1.60;;
58242;SDS011;50118;53.232;8.252;2022-08-21T12:57:17;5.05;;;1.70;;
58242;SDS011;50118;53.232;8.252;2022-08-21T12:59:54;2.92;;;1.50;;
58242;SDS011;50118;53.232;8.252;2022-08-21T13:02:26;3.05;;;1.50;;
58242;SDS011;50118;53.232;8.252;2022-08-21T13:04:56;3.15;;;1.38;;
58242;SDS011;50118;53.232;8.252;2022-08-21T13:07:27;3.22;;;1.50;;
58242;SDS011;50118;53.232;8.252;2022-08-21T13:12:25;3.58;;;1.60;;
58242;SDS011;50118;53.232;8.252;2022-08-21T13:14:51;3.90;;;1.50;;
58242;SDS011;50118;53.232;8.252;2022-08-21T13:17:23;4.20;;;1.57;;
58242;SDS011;50118;53.232;8.252;2022-08-21T13:20:05;3.28;;;1.55;;
58242;SDS011;50118;53.232;8.252;2022-08-21T13:22:39;5.05;;;1.65;;
58242;SDS011;50118;53.232;8.252;2022-08-21T13:25:11;4.00;;;1.48;;
58242;SDS011;50118;53.232;8.252;2022-08-21T13:27:43;2.85;;;1.77;;
58242;SDS011;50118;53.232;8.252;2022-08-21T13:30:22;4.63;;;1.50;;
58242;SDS011;50118;53.232;8.252;2022-08-21T13:32:52;3.45;;;1.60;;
58242;SDS011;50118;53.232;8.252;2022-08-21T13:35:25;3.70;;;1.67;;
58242;SDS011;50118;53.232;8.252;2022-08-21T13:37:55;3.17;;;1.50;;
58242;SDS011;50118;53.232;8.252;2022-08-21T13:40:26;3.30;;;1.45;;
58242;SDS011;50118;53.232;8.252;2022-08-21T13:42:56;3.50;;;1.40;;
58242;SDS011;50118;53.232;8.252;2022-08-21T13:45:24;2.97;;;1.40;;
58242;SDS011;50118;53.232;8.252;2022-08-21T13:47:51;3.15;;;1.30;;
58242;SDS011;50118;53.232;8.252;2022-08-21T13:50:19;3.10;;;1.45;;
58242;SDS011;50118;53.232;8.252;2022-08-21T13:52:59;3.47;;;1.35;;
58242;SDS011;50118;53.232;8.252;2022-08-21T13:56:01;2.63;;;1.23;;
58242;SDS011;50118;53.232;8.252;2022-08-21T13:58:27;3.40;;;1.50;;
58242;SDS011;50118;53.232;8.252;2022-08-21T14:00:58;3.55;;;1.38;;
58242;SDS011;50118;53.232;8.252;2022-08-21T14:03:27;3.70;;;1.50;;
58242;SDS011;50118;53.232;8.252;2022-08-21T14:08:25;3.92;;;1.40;;
58242;SDS011;50118;53.232;8.252;2022-08-21T14:10:54;3.03;;;1.30;;
58242;SDS011;50118;53.232;8.252;2022-08-21T14:13:33;2.17;;;1.10;;
58242;SDS011;50118;53.232;8.252;2022-08-21T14:16:03;4.13;;;1.50;;
58242;SDS011;50118;53.232;8.252;2022-08-21T14:18:46;2.63;;;1.30;;
58242;SDS011;50118;53.232;8.252;2022-08-21T14:21:26;3.67;;;1.38;;
58242;SDS011;50118;53.232;8.252;2022-08-21T14:27:04;2.78;;;1.23;;
58242;SDS011;50118;53.232;8.252;2022-08-21T14:29:32;1.85;;;1.27;;
58242;SDS011;50118;53.232;8.252;2022-08-21T14:32:08;2.50;;;1.20;;
58242;SDS011;50118;53.232;8.252;2022-08-21T14:34:37;2.97;;;1.10;;
58242;SDS011;50118;53.232;8.252;2022-08-21T14:37:02;2.38;;;1.35;;
58242;SDS011;50118;53.232;8.252;2022-08-21T14:39:28;3.20;;;1.30;;
58242;SDS011;50118;53.232;8.252;2022-08-21T14:41:53;3.05;;;1.40;;
58242;SDS011;50118;53.232;8.252;2022-08-21T14:44:20;1.58;;;1.13;;
58242;SDS011;50118;53.232;8.252;2022-08-21T14:46:45;3.00;;;1.40;;
58242;SDS011;50118;53.232;8.252;2022-08-21T14:49:11;3.53;;;1.40;;
58242;SDS011;50118;53.232;8.252;2022-08-21T14:51:37;4.28;;;1.50;;
58242;SDS011;50118;53.232;8.252;2022-08-21T14:54:04;3.25;;;1.42;;
58242;SDS011;50118;53.232;8.252;2022-08-21T14:56:30;2.55;;;1.42;;
58242;SDS011;50118;53.232;8.252;2022-08-21T14:58:56;2.67;;;1.38;;
58242;SDS011;50118;53.232;8.252;2022-08-21T15:01:29;4.45;;;1.38;;
58242;SDS011;50118;53.232;8.252;2022-08-21T15:03:55;2.65;;;1.50;;
58242;SDS011;50118;53.232;8.252;2022-08-21T15:06:21;2.35;;;1.40;;
58242;SDS011;50118;53.232;8.252;2022-08-21T15:08:46;3.20;;;1.40;;
58242;SDS011;50118;53.232;8.252;2022-08-21T15:11:15;3.80;;;1.30;;
58242;SDS011;50118;53.232;8.252;2022-08-21T15:13:42;2.17;;;1.23;;
58242;SDS011;50118;53.232;8.252;2022-08-21T15:16:09;2.63;;;1.40;;
58242;SDS011;50118;53.232;8.252;2022-08-21T15:18:36;3.95;;;1.60;;
58242;SDS011;50118;53.232;8.252;2022-08-21T15:21:02;2.65;;;1.30;;
58242;SDS011;50118;53.232;8.252;2022-08-21T15:23:27;2.55;;;1.30;;
58242;SDS011;50118;53.232;8.252;2022-08-21T15:25:53;2.90;;;1.42;;
58242;SDS011;50118;53.232;8.252;2022-08-21T15:28:19;4.28;;;1.55;;
58242;SDS011;50118;53.232;8.252;2022-08-21T15:30:46;4.93;;;1.50;;
58242;SDS011;50118;53.232;8.252;2022-08-21T15:33:12;4.13;;;1.40;;
58242;SDS011;50118;53.232;8.252;2022-08-21T15:35:37;3.80;;;1.70;;
58242;SDS011;50118;53.232;8.252;2022-08-21T15:38:04;3.67;;;1.42;;
58242;SDS011;50118;53.232;8.252;2022-08-21T15:40:29;3.70;;;1.50;;
58242;SDS011;50118;53.232;8.252;2022-08-21T15:42:56;5.35;;;1.35;;
58242;SDS011;50118;53.232;8.252;2022-08-21T15:45:25;3.50;;;1.60;;
58242;SDS011;50118;53.232;8.252;2022-08-21T15:47:51;2.83;;;1.30;;
58242;SDS011;50118;53.232;8.252;2022-08-21T15:50:17;2.90;;;1.48;;
58242;SDS011;50118;53.232;8.252;2022-08-21T15:52:43;3.42;;;1.45;;
58242;SDS011;50118;53.232;8.252;2022-08-21T15:55:09;3.20;;;1.50;;
58242;SDS011;50118;53.232;8.252;2022-08-21T15:57:35;5.05;;;1.50;;
58242;SDS011;50118;53.232;8.252;2022-08-21T16:00:07;5.43;;;2.25;;
58242;SDS011;50118;53.232;8.252;2022-08-21T16:02:38;7.20;;;2.00;;
58242;SDS011;50118;53.232;8.252;2022-08-21T16:05:09;4.95;;;1.90;;
58242;SDS011;50118;53.232;8.252;2022-08-21T16:07:37;8.18;;;2.10;;
58242;SDS011;50118;53.232;8.252;2022-08-21T16:10:03;6.25;;;2.30;;
58242;SDS011;50118;53.232;8.252;2022-08-21T16:12:31;6.30;;;2.25;;
58242;SDS011;50118;53.232;8.252;2022-08-21T16:14:59;7.95;;;2.30;;
58242;SDS011;50118;53.232;8.252;2022-08-21T16:17:31;6.43;;;2.40;;
58242;SDS011;50118;53.232;8.252;2022-08-21T16:19:59;4.07;;;1.95;;
58242;SDS011;50118;53.232;8.252;2022-08-21T16:22:27;5.07;;;2.00;;
58242;SDS011;50118;53.232;8.252;2022-08-21T16:24:52;4.38;;;1.90;;
58242;SDS011;50118;53.232;8.252;2022-08-21T16:27:18;5.68;;;2.10;;
58242;SDS011;50118;53.232;8.252;2022-08-21T16:29:43;6.30;;;2.17;;
58242;SDS011;50118;53.232;8.252;2022-08-21T16:32:10;5.22;;;2.10;;
58242;SDS011;50118;53.232;8.252;2022-08-21T16:34:36;7.43;;;2.30;;
58242;SDS011;50118;53.232;8.252;2022-08-21T16:37:10;5.53;;;2.15;;
58242;SDS011;50118;53.232;8.252;2022-08-21T16:39:36;7.53;;;2.10;;
58242;SDS011;50118;53.232;8.252;2022-08-21T16:42:02;5.75;;;2.22;;
58242;SDS011;50118;53.232;8.252;2022-08-21T16:44:27;5.20;;;2.30;;
58242;SDS011;50118;53.232;8.252;2022-08-21T16:46:53;4.88;;;2.10;;
58242;SDS011;50118;53.232;8.252;2022-08-21T16:49:19;5.95;;;2.47;;
58242;SDS011;50118;53.232;8.252;2022-08-21T16:51:44;7.57;;;2.30;;
58242;SDS011;50118;53.232;8.252;2022-08-21T16:54:10;4.95;;;1.92;;
58242;SDS011;50118;53.232;8.252;2022-08-21T16:56:36;5.47;;;2.10;;
58242;SDS011;50118;53.232;8.252;2022-08-21T16:59:03;5.32;;;2.00;;
58242;SDS011;50118;53.232;8.252;2022-08-21T17:01:30;4.72;;;2.20;;
58242;SDS011;50118;53.232;8.252;2022-08-21T17:03:58;6.82;;;2.30;;
58242;SDS011;50118;53.232;8.252;2022-08-21T17:06:24;6.40;;;2.28;;
58242;SDS011;50118;53.232;8.252;2022-08-21T17:08:50;5.95;;;2.20;;
58242;SDS011;50118;53.232;8.252;2022-08-21T17:11:24;5.78;;;2.40;;
58242;SDS011;50118;53.232;8.252;2022-08-21T17:13:54;8.57;;;2.20;;
58242;SDS011;50118;53.232;8.252;2022-08-21T17:16:21;4.75;;;2.30;;